createdAt,value
2023-02-28T00:01:35.901Z,101345.44
2023-02-28T00:04:04.281Z,101332.19
2023-02-28T00:06:33.717Z,101341.00
2023-02-28T00:09:02.168Z,101321.63
2023-02-28T00:11:30.853Z,101333.94
2023-02-28T00:13:59.762Z,101331.31
2023-02-28T00:16:29.088Z,101340.94
2023-02-28T00:18:57.771Z,101332.19
2023-02-28T00:21:27.771Z,101325.13
2023-02-28T00:23:56.471Z,101335.63
2023-02-28T00:26:25.017Z,101340.94
2023-02-28T00:28:53.999Z,101339.19
2023-02-28T00:31:23.075Z,101331.25
2023-02-28T00:33:53.286Z,101335.69
2023-02-28T00:36:22.831Z,101325.06
2023-02-28T00:38:51.493Z,101333.00
2023-02-28T00:41:19.901Z,101336.53
2023-02-28T00:43:49.080Z,101341.78
2023-02-28T00:46:20.894Z,101338.13
2023-02-28T00:48:48.802Z,101340.84
2023-02-28T00:51:16.675Z,101333.88
2023-02-28T00:53:45.436Z,101342.66
2023-02-28T00:56:14.823Z,101333.88
2023-02-28T00:58:43.153Z,101335.63
2023-02-28T01:01:11.709Z,101326.81
2023-02-28T01:03:40.254Z,101340.06
2023-02-28T01:06:08.457Z,101337.44
2023-02-28T01:08:36.611Z,101337.44
2023-02-28T01:11:13.551Z,101318.13
2023-02-28T01:13:44.129Z,101326.88
2023-02-28T01:16:15.031Z,101322.47
2023-02-28T01:18:43.693Z,101337.44
2023-02-28T01:21:18.100Z,101329.53
2023-02-28T01:23:47.539Z,101332.13
2023-02-28T01:26:23.286Z,101329.50
2023-02-28T01:28:53.495Z,101322.44
2023-02-28T01:31:23.004Z,101326.81
2023-02-28T01:33:51.843Z,101323.31
2023-02-28T01:36:24.744Z,101325.06
2023-02-28T01:38:54.202Z,101328.56
2023-02-28T01:41:30.764Z,101318.81
2023-02-28T01:44:07.973Z,101325.00
2023-02-28T01:46:37.692Z,101323.25
2023-02-28T01:49:18.450Z,101323.16
2023-02-28T01:51:55.788Z,101324.88
2023-02-28T01:54:36.574Z,101324.88
2023-02-28T01:57:18.048Z,101314.31
2023-02-28T02:00:10.297Z,101317.84
2023-02-28T02:02:47.718Z,101315.19
2023-02-28T02:05:32.354Z,101300.19
2023-02-28T02:08:13.363Z,101315.19
2023-02-28T02:10:51.254Z,101323.00
2023-02-28T02:13:56.629Z,101316.91
2023-02-28T02:16:44.952Z,101320.38
2023-02-28T02:19:55.895Z,101301.00
2023-02-28T02:22:46.163Z,101305.31
2023-02-28T02:25:46.409Z,101310.44
2023-02-28T02:28:35.314Z,101307.00
2023-02-28T02:31:36.578Z,101291.13
2023-02-28T02:34:40.468Z,101306.06
2023-02-28T02:37:17.915Z,101308.69
2023-02-28T02:39:52.887Z,101310.38
2023-02-28T02:42:31.133Z,101303.44
2023-02-28T02:45:23.842Z,101307.78
2023-02-28T02:47:52.894Z,101298.94
2023-02-28T02:50:28.905Z,101307.75
2023-02-28T02:53:04.538Z,101313.00
2023-02-28T02:55:40.022Z,101285.69
2023-02-28T02:58:20.567Z,101308.56
2023-02-28T03:00:55.061Z,101296.25
2023-02-28T03:03:35.715Z,101284.72
2023-02-28T03:06:06.976Z,101297.94
2023-02-28T03:08:38.985Z,101311.13
2023-02-28T03:11:16.343Z,101306.75
2023-02-28T03:13:51.432Z,101303.25
2023-02-28T03:16:42.806Z,101310.25
2023-02-28T03:19:34.115Z,101313.69
2023-02-28T03:22:34.584Z,101309.28
2023-02-28T03:25:26.583Z,101311.03
2023-02-28T03:28:28.176Z,101314.56
2023-02-28T03:31:10.313Z,101289.78
2023-02-28T03:34:19.840Z,101313.59
2023-02-28T03:37:16.400Z,101298.69
2023-02-28T03:40:02.194Z,101303.09
2023-02-28T03:42:36.608Z,101307.50
2023-02-28T03:45:13.995Z,101303.13
2023-02-28T03:47:50.209Z,101306.63
2023-02-28T03:50:40.665Z,101302.22
2023-02-28T03:53:20.721Z,101304.81
2023-02-28T03:56:07.377Z,101311.00
2023-02-28T03:59:07.936Z,101300.38
2023-02-28T04:01:45.942Z,101297.72
2023-02-28T04:04:15.473Z,101294.97
2023-02-28T04:06:46.400Z,101295.84
2023-02-28T04:09:16.280Z,101309.09
2023-02-28T04:11:50.648Z,101286.28
2023-02-28T04:14:19.932Z,101308.25
2023-02-28T04:16:48.657Z,101305.59
2023-02-28T04:19:18.125Z,101311.75
2023-02-28T04:21:52.554Z,101296.84
2023-02-28T04:24:25.757Z,101290.72
2023-02-28T04:26:57.423Z,101316.16
2023-02-28T04:29:33.174Z,101306.56
2023-02-28T04:32:03.598Z,101314.47
2023-02-28T04:34:33.940Z,101284.53
2023-02-28T04:37:12.770Z,101292.59
2023-02-28T04:39:42.881Z,101313.75
2023-02-28T04:42:12.252Z,101310.25
2023-02-28T04:44:42.057Z,101283.03
2023-02-28T04:47:10.138Z,101291.88
2023-02-28T04:49:39.255Z,101301.56
2023-02-28T04:52:08.637Z,101281.31
2023-02-28T04:54:36.776Z,101301.63
2023-02-28T04:57:05.575Z,101301.63
2023-02-28T04:59:34.163Z,101308.63
2023-02-28T05:02:08.305Z,101298.94
2023-02-28T05:04:37.902Z,101313.06
2023-02-28T05:07:06.371Z,101307.88
2023-02-28T05:09:34.677Z,101317.59
2023-02-28T05:12:04.510Z,101301.75
2023-02-28T05:14:33.577Z,101301.81
2023-02-28T05:17:04.453Z,101315.06
2023-02-28T05:19:33.013Z,101297.50
2023-02-28T05:22:01.511Z,101313.44
2023-02-28T05:24:29.997Z,101301.94
2023-02-28T05:26:58.649Z,101303.69
2023-02-28T05:29:27.892Z,101319.56
2023-02-28T05:31:56.406Z,101309.06
2023-02-28T05:34:24.694Z,101316.06
2023-02-28T05:36:53.933Z,101306.44
2023-02-28T05:39:24.100Z,101316.19
2023-02-28T05:41:53.224Z,101313.50
2023-02-28T05:44:21.359Z,101323.19
2023-02-28T05:46:49.362Z,101306.50
2023-02-28T05:49:18.987Z,101312.63
2023-02-28T05:51:47.604Z,101309.94
2023-02-28T05:54:16.585Z,101308.19
2023-02-28T05:56:47.736Z,101333.66
2023-02-28T05:59:17.122Z,101321.28
2023-02-28T06:01:49.567Z,101319.53
2023-02-28T06:04:31.465Z,101310.69
2023-02-28T06:07:01.321Z,101312.41
2023-02-28T06:09:30.257Z,101310.63
2023-02-28T06:12:04.810Z,101310.66
2023-02-28T06:14:34.966Z,101313.25
2023-02-28T06:17:07.871Z,101317.66
2023-02-28T06:19:40.106Z,101309.72
2023-02-28T06:22:09.999Z,101316.72
2023-02-28T06:24:38.182Z,101317.59
2023-02-28T06:27:06.703Z,101325.53
2023-02-28T06:29:40.906Z,101317.59
2023-02-28T06:32:09.806Z,101326.41
2023-02-28T06:34:38.498Z,101329.03
2023-02-28T06:37:07.121Z,101336.16
2023-02-28T06:39:37.479Z,101315.03
2023-02-28T06:42:06.385Z,101329.09
2023-02-28T06:44:41.481Z,101330.03
2023-02-28T06:47:10.730Z,101346.72
2023-02-28T06:49:41.385Z,101336.91
2023-02-28T06:52:13.729Z,101353.69
2023-02-28T06:54:43.677Z,101352.81
2023-02-28T06:57:12.208Z,101350.28
2023-02-28T06:59:41.057Z,101370.56
2023-02-28T07:02:12.761Z,101357.41
2023-02-28T07:04:45.955Z,101371.44
2023-02-28T07:07:16.079Z,101360.88
2023-02-28T07:09:45.092Z,101358.19
2023-02-28T07:12:16.432Z,101384.69
2023-02-28T07:14:44.586Z,101374.13
2023-02-28T07:17:13.474Z,101360.09
2023-02-28T07:19:41.536Z,101381.25
2023-02-28T07:22:09.792Z,101375.94
2023-02-28T07:24:42.016Z,101388.34
2023-02-28T07:27:10.178Z,101401.47
2023-02-28T07:29:39.636Z,101384.69
2023-02-28T07:32:07.944Z,101392.66
2023-02-28T07:34:36.674Z,101393.53
2023-02-28T07:37:06.231Z,101384.75
2023-02-28T07:39:34.376Z,101381.31
2023-02-28T07:42:12.860Z,101376.91
2023-02-28T07:44:41.929Z,101380.44
2023-02-28T07:47:13.033Z,101406.91
2023-02-28T07:49:41.420Z,101386.63
2023-02-28T07:52:12.263Z,101391.03
2023-02-28T07:54:40.674Z,101399.91
2023-02-28T07:57:09.585Z,101390.25
2023-02-28T07:59:40.072Z,101385.00
2023-02-28T08:02:13.634Z,101392.88
2023-02-28T08:04:44.515Z,101381.50
2023-02-28T08:07:15.194Z,101407.06
2023-02-28T08:09:44.464Z,101385.06
2023-02-28T08:12:14.778Z,101376.28
2023-02-28T08:14:45.742Z,101408.00
2023-02-28T08:17:15.873Z,101406.25
2023-02-28T08:19:47.156Z,101391.34
2023-02-28T08:22:15.646Z,101406.41
2023-02-28T08:24:45.445Z,101408.16
2023-02-28T08:27:14.547Z,101412.63
2023-02-28T08:29:45.945Z,101403.91
2023-02-28T08:32:29.054Z,101387.88
2023-02-28T08:34:59.663Z,101391.44
2023-02-28T08:37:28.167Z,101399.47
2023-02-28T08:39:57.008Z,101403.84
2023-02-28T08:42:26.176Z,101393.31
2023-02-28T08:44:56.544Z,101403.03
2023-02-28T08:47:25.420Z,101414.47
2023-02-28T08:49:55.535Z,101398.69
2023-02-28T08:52:24.891Z,101410.22
2023-02-28T08:54:55.479Z,101405.00
2023-02-28T08:57:23.776Z,101393.59
2023-02-28T09:00:16.326Z,101405.94
2023-02-28T09:02:46.216Z,101408.63
2023-02-28T09:05:35.860Z,101406.91
2023-02-28T09:08:04.862Z,101405.19
2023-02-28T09:10:33.097Z,101393.78
2023-02-28T09:13:03.673Z,101399.09
2023-02-28T09:15:32.964Z,101393.81
2023-02-28T09:18:01.173Z,101383.25
2023-02-28T09:20:30.044Z,101410.59
2023-02-28T09:22:58.378Z,101393.03
2023-02-28T09:25:26.985Z,101383.41
2023-02-28T09:27:56.035Z,101397.56
2023-02-28T09:30:24.714Z,101386.97
2023-02-28T09:32:55.421Z,101403.75
2023-02-28T09:35:26.140Z,101394.06
2023-02-28T09:37:59.981Z,101383.53
2023-02-28T09:40:34.124Z,101353.66
2023-02-28T09:43:07.508Z,101373.03
2023-02-28T09:45:43.768Z,101369.59
2023-02-28T09:48:19.708Z,101371.38
2023-02-28T09:50:52.662Z,101371.41
2023-02-28T09:54:01.377Z,101406.66
2023-02-28T09:56:42.844Z,101374.06
2023-02-28T09:59:37.898Z,101374.06
2023-02-28T10:02:50.612Z,101395.22
2023-02-28T10:05:32.857Z,101376.72
2023-02-28T10:08:40.389Z,101377.59
2023-02-28T10:11:57.188Z,101378.50
2023-02-28T10:14:49.600Z,101370.63
2023-02-28T10:17:55.013Z,101367.09
2023-02-28T10:20:36.949Z,101377.66
2023-02-28T10:23:29.104Z,101376.81
2023-02-28T10:26:13.095Z,101383.88
2023-02-28T10:28:42.172Z,101376.81
2023-02-28T10:31:26.394Z,101382.09
2023-02-28T10:33:56.665Z,101389.13
2023-02-28T10:36:31.466Z,101372.44
2023-02-28T10:39:26.031Z,101398.84
2023-02-28T10:42:07.387Z,101378.59
2023-02-28T10:44:38.626Z,101402.34
2023-02-28T10:47:20.044Z,101391.81
2023-02-28T10:52:55.409Z,101383.00
2023-02-28T10:55:34.711Z,101397.97
2023-02-28T10:58:48.989Z,101403.28
2023-02-28T11:01:23.279Z,101390.97
2023-02-28T11:07:37.343Z,101383.91
2023-02-28T11:10:21.534Z,101370.69
2023-02-28T11:12:57.653Z,101390.06
2023-02-28T11:16:21.880Z,101379.50
2023-02-28T11:19:03.037Z,101364.53
2023-02-28T11:21:41.479Z,101374.19
2023-02-28T11:24:48.189Z,101368.91
2023-02-28T11:27:30.812Z,101366.25
2023-02-28T11:30:00.985Z,101365.41
2023-02-28T11:32:32.638Z,101353.94
2023-02-28T11:35:23.505Z,101361.00
2023-02-28T11:37:53.055Z,101360.09
2023-02-28T11:41:03.769Z,101369.78
2023-02-28T11:44:12.555Z,101374.19
2023-02-28T11:46:58.648Z,101350.41
2023-02-28T11:49:52.851Z,101368.00
2023-02-28T11:52:53.030Z,101371.53
2023-02-28T11:55:27.703Z,101346.00
2023-02-28T11:58:28.282Z,101361.75
2023-02-28T12:01:10.398Z,101362.63
2023-02-28T12:04:22.738Z,101363.53
2023-02-28T12:07:22.472Z,101340.63
2023-02-28T12:10:30.394Z,101353.78
2023-02-28T12:13:21.456Z,101346.72
2023-02-28T12:16:29.226Z,101353.72
2023-02-28T12:19:15.330Z,101359.88
2023-02-28T12:22:23.046Z,101336.13
2023-02-28T12:25:09.065Z,101313.13
2023-02-28T12:27:47.287Z,101327.16
2023-02-28T12:30:29.013Z,101335.94
2023-02-28T12:33:15.574Z,101325.34
2023-02-28T12:36:02.257Z,101312.09
2023-02-28T12:39:00.332Z,101328.72
2023-02-28T12:42:01.175Z,101315.47
2023-02-28T12:44:40.975Z,101321.47
2023-02-28T12:47:18.238Z,101322.22
2023-02-28T12:50:17.843Z,101333.53
2023-02-28T12:53:29.854Z,101328.13
2023-02-28T12:56:36.871Z,101328.06
2023-02-28T12:59:49.197Z,101313.78
2023-02-28T13:02:26.357Z,101326.09
2023-02-28T13:05:09.885Z,101326.06
2023-02-28T13:08:39.128Z,101310.19
2023-02-28T13:11:20.956Z,101307.66
2023-02-28T13:14:21.258Z,101289.94
2023-02-28T13:17:12.712Z,101313.66
2023-02-28T13:20:16.325Z,101330.50
2023-02-28T13:22:52.608Z,101294.41
2023-02-28T13:25:42.875Z,101324.31
2023-02-28T13:28:15.990Z,101323.47
2023-02-28T13:30:54.303Z,101326.06
2023-02-28T13:33:31.453Z,101312.91
2023-02-28T13:36:15.512Z,101317.16
2023-02-28T13:38:53.135Z,101296.84
2023-02-28T13:41:43.227Z,101301.25
2023-02-28T13:44:16.551Z,101298.66
2023-02-28T13:46:52.042Z,101314.44
2023-02-28T13:49:27.594Z,101326.00
2023-02-28T13:52:08.786Z,101311.06
2023-02-28T13:55:20.889Z,101319.03
2023-02-28T13:58:16.673Z,101311.97
2023-02-28T14:01:13.189Z,101312.78
2023-02-28T14:03:42.043Z,101318.09
2023-02-28T14:06:36.188Z,101311.94
2023-02-28T14:09:41.341Z,101323.44
2023-02-28T14:12:53.521Z,101313.88
2023-02-28T14:15:40.372Z,101317.47
2023-02-28T14:18:41.477Z,101327.19
2023-02-28T14:21:30.570Z,101310.44
2023-02-28T14:24:33.222Z,101318.34
2023-02-28T14:27:42.554Z,101329.84
2023-02-28T14:31:06.066Z,101322.78
2023-02-28T14:33:47.058Z,101306.91
2023-02-28T14:36:40.079Z,101295.47
2023-02-28T14:39:23.937Z,101324.50
2023-02-28T14:41:56.781Z,101295.44
2023-02-28T14:44:28.615Z,101290.13
2023-02-28T14:46:59.452Z,101286.75
2023-02-28T14:49:33.808Z,101296.38
2023-02-28T14:52:14.757Z,101307.72
2023-02-28T14:54:44.831Z,101297.19
2023-02-28T14:57:35.222Z,101290.94
2023-02-28T15:00:35.192Z,101298.09
2023-02-28T15:03:36.436Z,101302.56
2023-02-28T15:06:19.190Z,101291.06
2023-02-28T15:09:12.771Z,101305.03
2023-02-28T15:11:50.197Z,101300.66
2023-02-28T15:14:29.379Z,101313.84
2023-02-28T15:17:05.300Z,101312.06
2023-02-28T15:19:40.974Z,101308.59
2023-02-28T15:22:20.154Z,101310.28
2023-02-28T15:24:54.115Z,101306.84
2023-02-28T15:27:33.511Z,101305.00
2023-02-28T15:30:09.344Z,101308.66
2023-02-28T15:32:43.732Z,101281.38
2023-02-28T15:35:33.893Z,101322.84
2023-02-28T15:38:20.759Z,101323.81
2023-02-28T15:41:00.658Z,101311.44
2023-02-28T15:43:35.140Z,101310.56
2023-02-28T15:46:16.362Z,101312.31
2023-02-28T15:48:56.456Z,101319.38
2023-02-28T15:51:35.752Z,101307.94
2023-02-28T15:54:16.432Z,101316.78
2023-02-28T15:56:54.553Z,101295.69
2023-02-28T15:59:30.728Z,101310.69
2023-02-28T16:02:23.315Z,101312.47
2023-02-28T16:05:14.961Z,101309.00
2023-02-28T16:07:46.950Z,101313.50
2023-02-28T16:10:16.504Z,101294.16
2023-02-28T16:12:45.445Z,101307.31
2023-02-28T16:15:31.332Z,101295.91
2023-02-28T16:17:59.915Z,101313.53
2023-02-28T16:20:34.924Z,101302.13
2023-02-28T16:23:03.996Z,101321.50
2023-02-28T16:25:45.134Z,101310.03
2023-02-28T16:28:32.683Z,101305.69
2023-02-28T16:31:06.247Z,101300.47
2023-02-28T16:33:36.118Z,101322.47
2023-02-28T16:36:07.477Z,101319.81
2023-02-28T16:38:35.727Z,101318.09
2023-02-28T16:41:06.479Z,101324.28
2023-02-28T16:43:36.208Z,101337.53
2023-02-28T16:46:06.668Z,101337.53
2023-02-28T16:48:34.830Z,101337.59
2023-02-28T16:51:05.824Z,101330.66
2023-02-28T16:53:35.890Z,101340.31
2023-02-28T16:56:05.462Z,101349.16
2023-02-28T16:58:36.974Z,101335.03
2023-02-28T17:01:06.210Z,101341.31
2023-02-28T17:03:35.119Z,101358.00
2023-02-28T17:06:30.871Z,101345.69
2023-02-28T17:09:03.076Z,101344.88
2023-02-28T17:11:34.914Z,101358.94
2023-02-28T17:14:04.543Z,101344.88
2023-02-28T17:16:38.490Z,101351.94
2023-02-28T17:19:12.087Z,101353.72
2023-02-28T17:21:43.909Z,101363.41
2023-02-28T17:24:28.914Z,101352.88
2023-02-28T17:26:59.756Z,101359.06
2023-02-28T17:29:28.972Z,101372.28
2023-02-28T17:32:00.799Z,101373.19
2023-02-28T17:34:31.448Z,101361.78
2023-02-28T17:37:03.955Z,101364.41
2023-02-28T17:39:33.153Z,101361.81
2023-02-28T17:42:01.134Z,101373.25
2023-02-28T17:44:30.718Z,101394.38
2023-02-28T17:47:01.103Z,101373.25
2023-02-28T17:49:29.491Z,101370.63
2023-02-28T17:51:59.335Z,101367.09
2023-02-28T17:54:28.584Z,101380.31
2023-02-28T17:56:57.294Z,101382.06
2023-02-28T17:59:25.449Z,101370.63
2023-02-28T18:01:56.651Z,101396.16
2023-02-28T18:04:28.162Z,101395.28
2023-02-28T18:07:00.828Z,101393.56
2023-02-28T18:09:28.552Z,101380.31
2023-02-28T18:11:57.072Z,101384.72
2023-02-28T18:14:26.488Z,101383.88
2023-02-28T18:16:57.402Z,101396.19
2023-02-28T18:19:25.135Z,101391.78
2023-02-28T18:21:57.272Z,101383.88
2023-02-28T18:24:25.233Z,101390.94
2023-02-28T18:26:53.113Z,101395.34
2023-02-28T18:29:25.317Z,101393.56
2023-02-28T18:31:59.451Z,101398.88
2023-02-28T18:34:33.308Z,101398.88
2023-02-28T18:37:04.761Z,101392.69
2023-02-28T18:39:32.723Z,101391.84
2023-02-28T18:42:00.706Z,101397.09
2023-02-28T18:44:28.418Z,101387.41
2023-02-28T18:46:56.225Z,101392.69
2023-02-28T18:49:23.967Z,101395.34
2023-02-28T18:51:52.845Z,101402.38
2023-02-28T18:54:20.849Z,101390.06
2023-02-28T18:56:50.808Z,101394.47
2023-02-28T18:59:21.062Z,101400.66
2023-02-28T19:01:51.315Z,101397.13
2023-02-28T19:04:19.172Z,101387.41
2023-02-28T19:06:46.912Z,101389.22
2023-02-28T19:09:14.678Z,101391.81
2023-02-28T19:11:42.664Z,101394.47
2023-02-28T19:14:10.699Z,101398.00
2023-02-28T19:16:39.894Z,101394.47
2023-02-28T19:19:07.883Z,101402.41
2023-02-28T19:21:36.715Z,101410.34
2023-02-28T19:24:05.343Z,101402.41
2023-02-28T19:26:33.824Z,101416.50
2023-02-28T19:29:06.058Z,101413.00
2023-02-28T19:31:33.908Z,101414.72
2023-02-28T19:34:04.684Z,101405.03
2023-02-28T19:36:33.383Z,101410.28
2023-02-28T19:39:01.337Z,101404.13
2023-02-28T19:41:29.288Z,101401.50
2023-02-28T19:43:57.279Z,101394.44
2023-02-28T19:46:25.604Z,101396.22
2023-02-28T19:48:56.167Z,101394.44
2023-02-28T19:51:24.490Z,101401.50
2023-02-28T19:53:52.414Z,101399.72
2023-02-28T19:56:20.262Z,101395.31
2023-02-28T19:58:48.206Z,101393.56
2023-02-28T20:01:19.622Z,101405.03
2023-02-28T20:03:51.252Z,101389.16
2023-02-28T20:06:19.144Z,101401.50
2023-02-28T20:08:48.609Z,101398.84
2023-02-28T20:11:17.687Z,101399.72
2023-02-28T20:13:48.339Z,101401.47
2023-02-28T20:16:16.647Z,101402.38
2023-02-28T20:18:47.450Z,101401.47
2023-02-28T20:21:16.493Z,101395.28
2023-02-28T20:23:48.593Z,101392.66
2023-02-28T20:26:20.237Z,101397.03
2023-02-28T20:28:48.656Z,101394.44
2023-02-28T20:31:25.500Z,101394.41
2023-02-28T20:33:53.475Z,101390.88
2023-02-28T20:36:23.593Z,101392.63
2023-02-28T20:38:53.083Z,101386.44
2023-02-28T20:41:21.780Z,101394.38
2023-02-28T20:44:00.839Z,101391.72
2023-02-28T20:46:31.294Z,101386.44
2023-02-28T20:48:59.331Z,101396.09
2023-02-28T20:51:27.119Z,101389.03
2023-02-28T20:53:54.982Z,101391.69
2023-02-28T20:56:25.982Z,101393.44
2023-02-28T20:59:13.943Z,101398.72
2023-02-28T21:01:44.749Z,101396.03
2023-02-28T21:04:12.663Z,101389.91
2023-02-28T21:06:43.718Z,101392.53
2023-02-28T21:09:14.405Z,101396.97
2023-02-28T21:11:42.623Z,101382.88
2023-02-28T21:14:16.424Z,101387.28
2023-02-28T21:16:48.111Z,101392.53
2023-02-28T21:19:16.931Z,101383.72
2023-02-28T21:21:46.665Z,101389.88
2023-02-28T21:24:19.774Z,101392.47
2023-02-28T21:26:48.172Z,101388.06
2023-02-28T21:29:16.113Z,101385.44
2023-02-28T21:31:44.114Z,101390.72
2023-02-28T21:34:13.512Z,101394.25
2023-02-28T21:36:47.446Z,101386.31
2023-02-28T21:39:19.779Z,101388.94
2023-02-28T21:41:48.035Z,101388.06
2023-02-28T21:44:19.542Z,101387.19
2023-02-28T21:46:52.565Z,101388.94
2023-02-28T21:49:20.722Z,101385.38
2023-02-28T21:51:48.834Z,101388.91
2023-02-28T21:54:16.707Z,101384.47
2023-02-28T21:56:44.634Z,101391.50
2023-02-28T21:59:13.080Z,101395.00
2023-02-28T22:01:46.466Z,101392.38
2023-02-28T22:04:22.017Z,101387.91
2023-02-28T22:06:53.619Z,101389.69
2023-02-28T22:09:21.800Z,101383.50
2023-02-28T22:11:50.398Z,101393.13
2023-02-28T22:14:18.808Z,101394.00
2023-02-28T22:16:51.718Z,101384.31
2023-02-28T22:19:22.099Z,101393.13
2023-02-28T22:21:50.436Z,101390.50
2023-02-28T22:24:20.993Z,101398.38
2023-02-28T22:26:55.627Z,101398.38
2023-02-28T22:29:23.454Z,101399.13
2023-02-28T22:31:51.430Z,101400.91
2023-02-28T22:34:20.627Z,101394.75
2023-02-28T22:36:54.946Z,101385.97
2023-02-28T22:39:22.713Z,101398.25
2023-02-28T22:41:51.229Z,101386.81
2023-02-28T22:44:19.966Z,101378.97
2023-02-28T22:46:53.805Z,101380.72
2023-02-28T22:49:22.560Z,101375.44
2023-02-28T22:51:57.605Z,101381.59
2023-02-28T22:54:25.612Z,101372.81
2023-02-28T22:56:53.424Z,101373.66
2023-02-28T22:59:22.263Z,101370.16
2023-02-28T23:01:54.317Z,101376.28
2023-02-28T23:04:32.685Z,101380.69
2023-02-28T23:07:01.143Z,101380.66
2023-02-28T23:09:28.934Z,101388.50
2023-02-28T23:11:56.636Z,101383.25
2023-02-28T23:14:24.360Z,101388.44
2023-02-28T23:16:54.944Z,101387.47
2023-02-28T23:19:29.874Z,101389.16
2023-02-28T23:21:59.974Z,101390.03
2023-02-28T23:24:31.281Z,101392.63
2023-02-28T23:27:01.436Z,101384.56
2023-02-28T23:29:29.701Z,101400.38
2023-02-28T23:31:58.295Z,101399.50
2023-02-28T23:34:30.205Z,101398.59
2023-02-28T23:37:02.114Z,101403.03
2023-02-28T23:39:31.293Z,101403.03
2023-02-28T23:41:59.854Z,101396.88
2023-02-28T23:44:28.107Z,101387.22
2023-02-28T23:46:55.999Z,101398.66
2023-02-28T23:49:23.884Z,101397.75
2023-02-28T23:51:54.207Z,101399.56
2023-02-28T23:54:22.338Z,101387.22
2023-02-28T23:56:50.365Z,101405.69
2023-02-28T23:59:18.250Z,101401.34
